Time;durP1;ratioP1;P1;durP2;ratioP2;P2;SDS_P1;SDS_P2;PMS_P1;PMS_P2;Temp;Humidity;BMP_temperature;BMP_pressure;BME280_temperature;BME280_humidity;BME280_pressure;Samples;Min_cycle;Max_cycle;Signal;HPM_P1;HPM_P2
2022/05/19 00:01:01;;;;;;;;;;;19.50;99.90;;;;;;5050566;28;19941;-72
2022/05/19 00:03:27;;;;;;;;;;;19.40;99.90;;;;;;5055154;28;20362;-71
2022/05/19 00:05:53;;;;;;;;;;;19.30;99.90;;;;;;5060869;28;19927;-71
2022/05/19 00:08:18;;;;;;;;;;;19.10;99.90;;;;;;5041532;28;19913;-71
2022/05/19 00:10:44;;;;;;;;;;;19.00;99.90;;;;;;5060186;28;19924;-71
2022/05/19 00:13:10;;;;;;;;;;;19.00;99.90;;;;;;5052730;28;19916;-72
2022/05/19 00:15:35;;;;;;;;;;;19.10;99.90;;;;;;5055657;28;19913;-72
2022/05/19 00:18:01;;;;;;;;;;;19.10;99.90;;;;;;5050265;28;20007;-72
2022/05/19 00:20:27;;;;;;;;;;;19.00;99.90;;;;;;5047001;28;20350;-71
2022/05/19 00:22:54;;;;;;;;;;;19.10;99.90;;;;;;5050338;28;19935;-71
2022/05/19 00:25:20;;;;;;;;;;;19.10;99.90;;;;;;5047506;28;19916;-71
2022/05/19 00:27:45;;;;;;;;;;;19.10;99.90;;;;;;5050618;28;19924;-71
2022/05/19 00:30:11;;;;;;;;;;;19.10;99.90;;;;;;5049695;28;19912;-71
2022/05/19 00:32:37;;;;;;;;;;;19.00;99.90;;;;;;5049005;28;20294;-72
2022/05/19 00:35:02;;;;;;;;;;;18.80;99.90;;;;;;5048946;28;19982;-72
2022/05/19 00:37:28;;;;;;;;;;;18.70;99.90;;;;;;5049771;28;19982;-72
2022/05/19 00:39:53;;;;;;;;;;;18.60;99.90;;;;;;5044934;28;20007;-72
2022/05/19 00:45:04;;;;;;;;;;;18.60;99.90;;;;;;5047706;28;20269;-72
2022/05/19 00:47:34;;;;;;;;;;;18.60;99.90;;;;;;5049593;28;20374;-71
2022/05/19 00:50:01;;;;;;;;;;;18.60;99.90;;;;;;5049831;28;19923;-71
2022/05/19 00:52:40;;;;;;;;;;;18.50;99.90;;;;;;5049064;28;19923;-72
2022/05/19 00:55:09;;;;;;;;;;;18.40;99.90;;;;;;5047940;28;20333;-72
2022/05/19 00:57:38;;;;;;;;;;;18.40;99.90;;;;;;5033380;28;19920;-72
2022/05/19 01:00:03;;;;;;;;;;;18.40;99.90;;;;;;5030055;28;20008;-72
2022/05/19 01:02:33;;;;;;;;;;;18.50;99.90;;;;;;5048845;28;19992;-71
2022/05/19 01:05:01;;;;;;;;;;;18.40;99.90;;;;;;5049297;28;19913;-71
2022/05/19 01:07:30;;;;;;;;;;;18.40;99.90;;;;;;5048193;28;19944;-72
2022/05/19 01:09:56;;;;;;;;;;;18.30;99.90;;;;;;5046651;28;19996;-71
2022/05/19 01:12:22;;;;;;;;;;;18.40;99.90;;;;;;5048150;28;20313;-71
2022/05/19 01:14:47;;;;;;;;;;;18.40;99.90;;;;;;5047173;28;19912;-71
2022/05/19 01:17:13;;;;;;;;;;;18.40;99.90;;;;;;5043462;28;19913;-71
2022/05/19 01:19:53;;;;;;;;;;;18.40;99.90;;;;;;5047619;28;19939;-71
2022/05/19 01:22:35;;;;;;;;;;;18.40;99.90;;;;;;5044364;28;19971;-71
2022/05/19 01:25:06;;;;;;;;;;;18.50;99.90;;;;;;5045292;28;20026;-71
2022/05/19 01:27:32;;;;;;;;;;;18.50;99.90;;;;;;5047173;28;19935;-71
2022/05/19 01:29:57;;;;;;;;;;;18.70;99.90;;;;;;5046426;28;19916;-70
2022/05/19 01:32:25;;;;;;;;;;;18.90;99.90;;;;;;5048475;28;20390;-71
2022/05/19 01:34:51;;;;;;;;;;;19.00;99.90;;;;;;5027610;28;20632;-71
2022/05/19 01:37:17;;;;;;;;;;;19.00;99.90;;;;;;5054134;28;20003;-72
2022/05/19 01:39:45;;;;;;;;;;;19.00;99.90;;;;;;5045029;28;20020;-73
2022/05/19 01:42:18;;;;;;;;;;;18.90;99.90;;;;;;5047065;28;19947;-71
2022/05/19 01:45:03;;;;;;;;;;;18.80;99.90;;;;;;5048388;28;19916;-71
2022/05/19 01:47:31;;;;;;;;;;;18.70;99.90;;;;;;5046552;28;19913;-71
2022/05/19 01:49:59;;;;;;;;;;;18.80;99.90;;;;;;5046938;28;19913;-71
2022/05/19 01:52:34;;;;;;;;;;;18.70;99.90;;;;;;5047357;28;19972;-71
2022/05/19 01:55:18;;;;;;;;;;;18.70;99.90;;;;;;5048130;28;19935;-72
2022/05/19 01:57:59;;;;;;;;;;;18.70;99.90;;;;;;5047377;28;19933;-72
2022/05/19 02:00:27;;;;;;;;;;;18.70;99.90;;;;;;5046348;28;19912;-71
2022/05/19 02:02:56;;;;;;;;;;;18.70;99.90;;;;;;5045863;28;20022;-71
2022/05/19 02:05:22;;;;;;;;;;;18.60;99.90;;;;;;5063915;28;20403;-72
2022/05/19 02:07:49;;;;;;;;;;;18.50;99.90;;;;;;5047508;28;19948;-72
2022/05/19 02:10:21;;;;;;;;;;;18.50;99.90;;;;;;5027811;28;19913;-72
2022/05/19 02:12:48;;;;;;;;;;;18.60;99.90;;;;;;5049593;28;19995;-72
2022/05/19 02:15:16;;;;;;;;;;;18.50;99.90;;;;;;5031468;28;19909;-72
2022/05/19 02:17:42;;;;;;;;;;;18.60;99.90;;;;;;5051698;28;19924;-72
2022/05/19 02:20:09;;;;;;;;;;;18.60;99.90;;;;;;5049176;28;19908;-71
2022/05/19 02:22:37;;;;;;;;;;;18.60;99.90;;;;;;5052379;28;19967;-71
2022/05/19 02:25:13;;;;;;;;;;;18.60;99.90;;;;;;5051440;28;19908;-72
2022/05/19 02:27:42;;;;;;;;;;;18.70;99.90;;;;;;5054630;28;19913;-71
2022/05/19 02:30:09;;;;;;;;;;;18.70;99.90;;;;;;5051668;28;19967;-72
2022/05/19 02:32:38;;;;;;;;;;;18.70;99.90;;;;;;5051390;28;20345;-72
2022/05/19 02:35:04;;;;;;;;;;;18.70;99.90;;;;;;5051200;28;19913;-72
2022/05/19 02:37:30;;;;;;;;;;;18.70;99.90;;;;;;5049967;28;19915;-72
2022/05/19 02:39:56;;;;;;;;;;;18.80;99.90;;;;;;5051922;28;19912;-72
2022/05/19 02:42:22;;;;;;;;;;;18.80;99.90;;;;;;5051432;28;19913;-72
2022/05/19 02:44:47;;;;;;;;;;;18.80;99.90;;;;;;5050028;28;19956;-71
2022/05/19 02:47:13;;;;;;;;;;;18.60;99.90;;;;;;5051789;28;19909;-72
2022/05/19 02:49:39;;;;;;;;;;;18.70;99.90;;;;;;5029946;28;19921;-71
2022/05/19 02:52:04;;;;;;;;;;;18.60;99.90;;;;;;5048499;28;19967;-70
2022/05/19 02:54:30;;;;;;;;;;;18.60;99.90;;;;;;5051114;28;19909;-71
2022/05/19 02:56:55;;;;;;;;;;;18.60;99.90;;;;;;5052447;28;19920;-71
2022/05/19 02:59:21;;;;;;;;;;;18.60;99.90;;;;;;5051976;28;19916;-71
2022/05/19 03:01:47;;;;;;;;;;;18.60;99.90;;;;;;5056059;28;20370;-71
2022/05/19 03:04:12;;;;;;;;;;;18.60;99.90;;;;;;5048368;28;19913;-72
2022/05/19 03:06:38;;;;;;;;;;;18.60;99.90;;;;;;5049769;28;19912;-73
2022/05/19 03:09:04;;;;;;;;;;;18.60;99.90;;;;;;5051373;28;19958;-72
2022/05/19 03:11:30;;;;;;;;;;;18.50;99.90;;;;;;5031115;28;19916;-72
2022/05/19 03:13:56;;;;;;;;;;;18.50;99.90;;;;;;5048330;28;19931;-72
2022/05/19 03:16:21;;;;;;;;;;;18.50;99.90;;;;;;5049340;28;20362;-72
2022/05/19 03:18:47;;;;;;;;;;;18.50;99.90;;;;;;5047500;28;19955;-71
2022/05/19 03:21:13;;;;;;;;;;;18.40;99.90;;;;;;5050641;28;19921;-71
2022/05/19 03:23:39;;;;;;;;;;;18.40;99.90;;;;;;5050887;28;19963;-71
2022/05/19 03:26:05;;;;;;;;;;;18.40;99.90;;;;;;5031026;28;20410;-71
2022/05/19 03:28:30;;;;;;;;;;;18.30;99.90;;;;;;5032916;28;19979;-71
2022/05/19 03:30:56;;;;;;;;;;;18.30;99.90;;;;;;5050188;28;19912;-72
2022/05/19 03:33:21;;;;;;;;;;;18.20;99.90;;;;;;5051517;28;20027;-73
2022/05/19 03:35:55;;;;;;;;;;;18.20;99.90;;;;;;5051344;28;19912;-72
2022/05/19 03:38:20;;;;;;;;;;;18.20;99.90;;;;;;5051906;28;20051;-71
2022/05/19 03:40:47;;;;;;;;;;;18.20;99.90;;;;;;5052778;28;19944;-72
2022/05/19 03:43:13;;;;;;;;;;;18.20;99.90;;;;;;5031942;28;19921;-72
2022/05/19 03:45:38;;;;;;;;;;;18.10;99.90;;;;;;5052139;28;19920;-72
2022/05/19 03:48:04;;;;;;;;;;;18.00;99.90;;;;;;5032615;28;20057;-72
2022/05/19 03:50:30;;;;;;;;;;;18.00;99.90;;;;;;5031403;28;19917;-72
2022/05/19 03:52:55;;;;;;;;;;;18.00;99.90;;;;;;5047164;28;19912;-72
2022/05/19 03:55:21;;;;;;;;;;;18.00;99.90;;;;;;5058102;28;19901;-72
2022/05/19 03:57:47;;;;;;;;;;;18.00;99.90;;;;;;5061582;28;20430;-72
2022/05/19 04:00:12;;;;;;;;;;;18.00;99.90;;;;;;5046567;28;19913;-71
2022/05/19 04:02:38;;;;;;;;;;;17.90;99.90;;;;;;5066596;28;19927;-71
2022/05/19 04:05:05;;;;;;;;;;;17.90;99.90;;;;;;5050047;28;19921;-72
2022/05/19 04:07:30;;;;;;;;;;;17.90;99.90;;;;;;5050804;28;19987;-72
2022/05/19 04:09:56;;;;;;;;;;;17.80;99.90;;;;;;5049755;28;20358;-71
2022/05/19 04:12:22;;;;;;;;;;;17.80;99.90;;;;;;5046303;28;20015;-72
2022/05/19 04:14:47;;;;;;;;;;;17.90;99.90;;;;;;5048851;28;20400;-73
2022/05/19 04:17:13;;;;;;;;;;;17.90;99.90;;;;;;5056652;28;19919;-73
2022/05/19 04:19:39;;;;;;;;;;;17.90;99.90;;;;;;5050264;28;20310;-72
2022/05/19 04:22:04;;;;;;;;;;;17.90;99.90;;;;;;5033157;28;19917;-72
2022/05/19 04:24:30;;;;;;;;;;;18.00;99.90;;;;;;5046345;28;20007;-72
2022/05/19 04:26:55;;;;;;;;;;;17.90;99.90;;;;;;5050035;28;21930;-72
2022/05/19 04:29:21;;;;;;;;;;;17.90;99.90;;;;;;5049166;28;19995;-72
2022/05/19 04:31:47;;;;;;;;;;;17.90;99.90;;;;;;5051646;28;20263;-73
2022/05/19 04:34:12;;;;;;;;;;;18.00;99.90;;;;;;5052138;28;19913;-72
2022/05/19 04:36:38;;;;;;;;;;;18.00;99.90;;;;;;5048908;28;19920;-71
2022/05/19 04:39:03;;;;;;;;;;;18.10;99.90;;;;;;5051683;28;19927;-73
2022/05/19 04:41:29;;;;;;;;;;;18.00;99.90;;;;;;5056400;28;19923;-72
2022/05/19 04:43:56;;;;;;;;;;;18.00;99.90;;;;;;5050802;28;19913;-72
2022/05/19 04:46:21;;;;;;;;;;;18.00;99.90;;;;;;5054499;28;20277;-71
2022/05/19 04:48:47;;;;;;;;;;;18.20;99.90;;;;;;5049066;28;19999;-73
2022/05/19 04:51:13;;;;;;;;;;;18.20;99.90;;;;;;5052410;28;20366;-73
2022/05/19 04:53:38;;;;;;;;;;;18.10;99.90;;;;;;5048099;28;19919;-72
2022/05/19 04:56:04;;;;;;;;;;;18.00;99.90;;;;;;5052967;28;20341;-73
2022/05/19 04:58:30;;;;;;;;;;;18.10;99.90;;;;;;5054690;28;19947;-71
2022/05/19 05:00:55;;;;;;;;;;;18.20;99.90;;;;;;5059996;28;19921;-72
2022/05/19 05:03:22;;;;;;;;;;;18.20;99.90;;;;;;5060720;28;19984;-71
2022/05/19 05:05:47;;;;;;;;;;;18.20;99.90;;;;;;5068805;28;19913;-72
2022/05/19 05:08:13;;;;;;;;;;;18.20;99.90;;;;;;5056384;28;19953;-72
2022/05/19 05:10:40;;;;;;;;;;;18.20;99.90;;;;;;5060946;28;19957;-74
2022/05/19 05:13:06;;;;;;;;;;;18.30;99.90;;;;;;5051269;28;20000;-73
2022/05/19 05:15:31;;;;;;;;;;;18.30;99.90;;;;;;5030760;28;19967;-71
2022/05/19 05:18:05;;;;;;;;;;;18.30;99.90;;;;;;5044666;28;20385;-71
2022/05/19 05:20:30;;;;;;;;;;;18.40;99.90;;;;;;5026724;28;19921;-72
2022/05/19 05:22:56;;;;;;;;;;;18.40;99.90;;;;;;5040398;28;19931;-72
2022/05/19 05:25:22;;;;;;;;;;;18.50;99.90;;;;;;5044549;28;19920;-72
2022/05/19 05:27:48;;;;;;;;;;;18.50;99.90;;;;;;5041503;28;20143;-71
2022/05/19 05:30:14;;;;;;;;;;;18.60;99.90;;;;;;5040889;28;20011;-72
2022/05/19 05:32:40;;;;;;;;;;;18.50;99.90;;;;;;5045462;28;19919;-72
2022/05/19 05:35:08;;;;;;;;;;;18.50;99.90;;;;;;5044639;28;19913;-72
2022/05/19 05:37:34;;;;;;;;;;;18.60;99.90;;;;;;5025680;28;19996;-71
2022/05/19 05:39:59;;;;;;;;;;;18.60;99.90;;;;;;5041562;28;20578;-71
2022/05/19 05:42:25;;;;;;;;;;;18.80;99.90;;;;;;5044957;28;19962;-73
2022/05/19 05:44:50;;;;;;;;;;;18.90;99.90;;;;;;5028531;28;20412;-73
2022/05/19 05:47:17;;;;;;;;;;;19.00;99.90;;;;;;5049142;28;20379;-72
2022/05/19 05:49:42;;;;;;;;;;;19.00;99.90;;;;;;5042549;28;20355;-72
2022/05/19 05:52:08;;;;;;;;;;;19.10;99.90;;;;;;5047466;28;19947;-71
2022/05/19 05:54:34;;;;;;;;;;;19.20;99.90;;;;;;5043647;28;19919;-73
2022/05/19 05:57:00;;;;;;;;;;;19.30;99.90;;;;;;5045361;28;20083;-73
2022/05/19 05:59:26;;;;;;;;;;;19.30;99.90;;;;;;5046430;28;20560;-72
2022/05/19 06:01:51;;;;;;;;;;;19.40;99.90;;;;;;5045788;28;20470;-72
2022/05/19 06:04:17;;;;;;;;;;;19.50;99.90;;;;;;5046523;28;19913;-72
2022/05/19 06:06:45;;;;;;;;;;;19.50;99.90;;;;;;5054748;28;20297;-73
2022/05/19 06:09:12;;;;;;;;;;;19.50;99.90;;;;;;5054856;28;19963;-72
2022/05/19 06:11:38;;;;;;;;;;;19.60;99.90;;;;;;5054544;28;19978;-72
2022/05/19 06:14:04;;;;;;;;;;;19.50;99.90;;;;;;5058031;28;19913;-73
2022/05/19 06:16:30;;;;;;;;;;;19.50;99.90;;;;;;5058738;28;19971;-73
2022/05/19 06:18:55;;;;;;;;;;;19.60;99.90;;;;;;5032384;28;19939;-73
2022/05/19 06:21:21;;;;;;;;;;;19.80;99.90;;;;;;5043172;28;20227;-73
2022/05/19 06:23:47;;;;;;;;;;;20.00;99.90;;;;;;5042132;28;19931;-73
2022/05/19 06:26:13;;;;;;;;;;;20.00;99.90;;;;;;5040630;28;19967;-67
2022/05/19 06:28:38;;;;;;;;;;;20.00;99.90;;;;;;5042602;28;19913;-65
2022/05/19 06:31:05;;;;;;;;;;;20.30;99.90;;;;;;5051736;28;19967;-64
2022/05/19 06:33:32;;;;;;;;;;;20.40;99.90;;;;;;5054058;28;19913;-66
2022/05/19 06:35:58;;;;;;;;;;;20.60;99.90;;;;;;5048341;28;19921;-66
2022/05/19 06:38:24;;;;;;;;;;;20.70;99.90;;;;;;5049404;28;19909;-65
2022/05/19 06:40:50;;;;;;;;;;;20.70;99.90;;;;;;5054036;28;19928;-65
2022/05/19 06:43:15;;;;;;;;;;;20.80;99.90;;;;;;5052134;28;19929;-65
2022/05/19 06:45:43;;;;;;;;;;;20.80;99.90;;;;;;5033395;28;19924;-66
2022/05/19 06:48:09;;;;;;;;;;;20.70;99.90;;;;;;5050188;28;20440;-65
2022/05/19 06:50:35;;;;;;;;;;;20.80;99.90;;;;;;5054745;28;19912;-64
2022/05/19 06:53:03;;;;;;;;;;;20.90;99.90;;;;;;5049472;28;19917;-65
2022/05/19 06:55:32;;;;;;;;;;;21.00;99.90;;;;;;5047106;28;20386;-68
2022/05/19 06:57:58;;;;;;;;;;;21.00;99.90;;;;;;5047874;28;20067;-66
2022/05/19 07:00:24;;;;;;;;;;;21.10;99.80;;;;;;5051470;28;19995;-65
2022/05/19 07:02:51;;;;;;;;;;;21.20;99.60;;;;;;5055064;28;20264;-69
2022/05/19 07:05:18;;;;;;;;;;;21.40;99.90;;;;;;5047785;28;19913;-66
2022/05/19 07:07:46;;;;;;;;;;;21.50;99.10;;;;;;5048016;28;19920;-66
2022/05/19 07:10:13;;;;;;;;;;;21.50;98.90;;;;;;5051591;28;19917;-67
2022/05/19 07:12:39;;;;;;;;;;;21.60;99.10;;;;;;5057707;28;19913;-67
2022/05/19 07:15:05;;;;;;;;;;;21.70;99.00;;;;;;5049048;28;19982;-67
2022/05/19 07:17:30;;;;;;;;;;;21.70;98.30;;;;;;5051632;28;19939;-65
2022/05/19 07:22:40;;;;;;;;;;;22.00;96.40;;;;;;5052183;28;19931;-69
2022/05/19 07:25:08;;;;;;;;;;;22.10;95.40;;;;;;5050540;28;19913;-70
2022/05/19 07:27:34;;;;;;;;;;;22.20;95.00;;;;;;5052597;28;20433;-70
2022/05/19 07:30:00;;;;;;;;;;;22.20;94.80;;;;;;5050513;28;19916;-71
2022/05/19 07:32:26;;;;;;;;;;;22.20;95.10;;;;;;5052343;28;19916;-69
2022/05/19 07:34:52;;;;;;;;;;;22.20;95.10;;;;;;5050772;28;20417;-70
2022/05/19 07:37:17;;;;;;;;;;;22.30;94.80;;;;;;5051709;28;19916;-70
2022/05/19 07:39:43;;;;;;;;;;;22.30;93.70;;;;;;5052425;28;19955;-70
2022/05/19 07:42:09;;;;;;;;;;;22.30;91.50;;;;;;5052677;28;19971;-69
2022/05/19 07:44:35;;;;;;;;;;;22.30;90.80;;;;;;5051998;28;19979;-69
2022/05/19 07:47:00;;;;;;;;;;;22.40;89.50;;;;;;5052828;28;19913;-70
2022/05/19 07:49:26;;;;;;;;;;;22.40;89.60;;;;;;5052329;28;19990;-69
2022/05/19 07:51:51;;;;;;;;;;;22.30;88.80;;;;;;5034649;28;19943;-69
2022/05/19 07:54:19;;;;;;;;;;;22.30;89.90;;;;;;5051086;28;19929;-70
2022/05/19 07:56:45;;;;;;;;;;;22.40;90.90;;;;;;5052351;28;19966;-70
2022/05/19 07:59:11;;;;;;;;;;;22.50;90.80;;;;;;5052880;28;20184;-70
2022/05/19 08:01:38;;;;;;;;;;;22.80;91.10;;;;;;5052358;28;19958;-70
2022/05/19 08:04:04;;;;;;;;;;;22.70;90.60;;;;;;5050130;28;19909;-69
2022/05/19 08:06:30;;;;;;;;;;;22.80;90.30;;;;;;5049694;28;19960;-69
2022/05/19 08:08:58;;;;;;;;;;;22.70;90.20;;;;;;5051489;28;19932;-72
2022/05/19 08:11:24;;;;;;;;;;;22.60;90.00;;;;;;5051826;28;19916;-72
2022/05/19 08:16:33;;;;;;;;;;;22.50;88.50;;;;;;5045482;28;19977;-69
2022/05/19 08:18:59;;;;;;;;;;;22.60;90.70;;;;;;5052284;28;20429;-71
2022/05/19 08:21:24;;;;;;;;;;;22.50;93.40;;;;;;5051310;28;19913;-70
2022/05/19 08:23:53;;;;;;;;;;;22.40;94.10;;;;;;5051846;28;19917;-70
2022/05/19 08:26:19;;;;;;;;;;;22.30;95.10;;;;;;5051643;28;19928;-71
2022/05/19 08:28:47;;;;;;;;;;;22.30;95.10;;;;;;5052271;28;19947;-71
2022/05/19 08:31:14;;;;;;;;;;;22.20;92.30;;;;;;5051475;28;19909;-70
2022/05/19 08:33:41;;;;;;;;;;;22.10;93.20;;;;;;5050135;28;19966;-69
2022/05/19 08:36:08;;;;;;;;;;;22.20;92.00;;;;;;5050615;28;19913;-70
2022/05/19 08:38:34;;;;;;;;;;;22.10;92.80;;;;;;5051833;28;19909;-71
2022/05/19 08:41:02;;;;;;;;;;;22.10;92.60;;;;;;5049488;28;19962;-69
2022/05/19 08:43:36;;;;;;;;;;;22.20;92.90;;;;;;5047766;28;19924;-70
2022/05/19 08:46:03;;;;;;;;;;;22.20;92.70;;;;;;5051817;28;19909;-69
2022/05/19 08:48:29;;;;;;;;;;;22.10;91.60;;;;;;5050794;28;19916;-69
2022/05/19 08:50:56;;;;;;;;;;;22.10;91.90;;;;;;5050552;28;19948;-69
2022/05/19 08:53:27;;;;;;;;;;;22.10;91.40;;;;;;5033110;28;19913;-70
2022/05/19 08:55:57;;;;;;;;;;;22.10;92.50;;;;;;5051495;28;20263;-70
2022/05/19 08:58:33;;;;;;;;;;;22.20;92.70;;;;;;5051420;28;19921;-71
2022/05/19 09:01:12;;;;;;;;;;;22.20;91.80;;;;;;5046438;28;20003;-69
2022/05/19 09:03:50;;;;;;;;;;;22.10;92.50;;;;;;5051281;28;20212;-69
2022/05/19 09:06:34;;;;;;;;;;;22.10;92.50;;;;;;5051165;28;20307;-69
2022/05/19 09:09:03;;;;;;;;;;;22.00;92.90;;;;;;5051331;28;19909;-69
2022/05/19 09:11:38;;;;;;;;;;;22.00;92.80;;;;;;5047266;28;19913;-69
2022/05/19 09:14:25;;;;;;;;;;;22.10;93.00;;;;;;5048273;28;19984;-70
2022/05/19 09:16:53;;;;;;;;;;;22.10;94.20;;;;;;5049457;28;19951;-69
2022/05/19 09:19:19;;;;;;;;;;;22.30;94.30;;;;;;5048235;28;19959;-69
2022/05/19 09:21:45;;;;;;;;;;;22.40;94.20;;;;;;5050869;28;19913;-69
2022/05/19 09:24:11;;;;;;;;;;;22.50;94.40;;;;;;5050786;28;20004;-70
2022/05/19 09:26:49;;;;;;;;;;;22.60;93.50;;;;;;5051032;28;20346;-70
2022/05/19 09:29:20;;;;;;;;;;;22.60;94.00;;;;;;5049885;28;19919;-69
2022/05/19 09:31:53;;;;;;;;;;;22.60;93.90;;;;;;5049991;28;19920;-71
2022/05/19 09:34:22;;;;;;;;;;;22.60;94.50;;;;;;5050749;28;19915;-69
2022/05/19 09:37:08;;;;;;;;;;;22.50;94.30;;;;;;5051334;28;19958;-69
2022/05/19 09:39:42;;;;;;;;;;;22.40;94.90;;;;;;5049694;28;20079;-70
2022/05/19 09:42:09;;;;;;;;;;;22.40;94.10;;;;;;5050637;28;19913;-70
2022/05/19 09:44:37;;;;;;;;;;;22.50;94.10;;;;;;5051409;28;19909;-68
2022/05/19 09:47:26;;;;;;;;;;;22.50;94.10;;;;;;5050457;28;19920;-69
2022/05/19 09:49:54;;;;;;;;;;;22.60;94.10;;;;;;5038349;28;19978;-70
2022/05/19 09:52:24;;;;;;;;;;;22.60;94.20;;;;;;5050520;28;20402;-70
2022/05/19 09:54:54;;;;;;;;;;;22.70;94.60;;;;;;5050922;28;19912;-70
2022/05/19 09:57:25;;;;;;;;;;;22.60;93.90;;;;;;5049518;28;19925;-69
2022/05/19 09:59:52;;;;;;;;;;;22.60;93.60;;;;;;5049859;28;20293;-69
2022/05/19 10:02:26;;;;;;;;;;;22.50;93.60;;;;;;5050392;28;19936;-71
2022/05/19 10:04:55;;;;;;;;;;;22.50;93.60;;;;;;5048151;28;19909;-70
2022/05/19 10:07:24;;;;;;;;;;;22.50;93.90;;;;;;5046073;28;19920;-69
2022/05/19 10:09:51;;;;;;;;;;;22.50;94.30;;;;;;5049995;28;19974;-71
2022/05/19 10:12:28;;;;;;;;;;;22.50;94.40;;;;;;5050427;28;19909;-70
2022/05/19 10:14:58;;;;;;;;;;;22.60;95.00;;;;;;5048212;28;19909;-70
2022/05/19 10:17:30;;;;;;;;;;;22.60;95.00;;;;;;5049666;28;20378;-70
2022/05/19 10:20:04;;;;;;;;;;;22.60;95.70;;;;;;5050463;28;19916;-69
2022/05/19 10:22:33;;;;;;;;;;;22.60;96.00;;;;;;5050438;28;19921;-71
2022/05/19 10:25:17;;;;;;;;;;;22.50;94.80;;;;;;5049781;28;19952;-70
2022/05/19 10:33:45;;;;;;;;;;;22.50;96.20;;;;;;5052541;28;20494;-70
2022/05/19 10:36:10;;;;;;;;;;;22.60;99.90;;;;;;5051910;28;19914;-69
2022/05/19 10:38:58;;;;;;;;;;;22.30;99.90;;;;;;5040624;28;20362;-69
2022/05/19 10:41:43;;;;;;;;;;;22.10;99.90;;;;;;5053738;28;20251;-70
2022/05/19 10:44:08;;;;;;;;;;;22.10;99.90;;;;;;5049410;28;19950;-69
2022/05/19 10:46:46;;;;;;;;;;;22.20;99.90;;;;;;5053449;28;19962;-70
2022/05/19 10:49:20;;;;;;;;;;;22.10;99.90;;;;;;5053774;28;20003;-69
2022/05/19 10:51:46;;;;;;;;;;;22.10;99.90;;;;;;5053573;28;20363;-69
2022/05/19 10:54:30;;;;;;;;;;;22.00;99.90;;;;;;5052774;28;19913;-68
2022/05/19 10:56:56;;;;;;;;;;;22.10;99.90;;;;;;5048645;28;19920;-68
2022/05/19 10:59:40;;;;;;;;;;;22.00;99.90;;;;;;5060731;28;20543;-70
2022/05/19 11:02:24;;;;;;;;;;;22.00;99.90;;;;;;5052198;28;19920;-69
2022/05/19 11:04:50;;;;;;;;;;;22.00;99.90;;;;;;5048922;28;19917;-70
2022/05/19 11:07:34;;;;;;;;;;;22.10;99.90;;;;;;5050447;28;20298;-72
2022/05/19 11:10:18;;;;;;;;;;;22.10;97.20;;;;;;5046942;28;20220;-68
2022/05/19 11:12:44;;;;;;;;;;;22.10;99.90;;;;;;5051715;28;20152;-68
2022/05/19 11:15:15;;;;;;;;;;;22.10;99.90;;;;;;5048541;28;19916;-68
2022/05/19 11:17:40;;;;;;;;;;;22.00;99.90;;;;;;5052280;28;20290;-70
2022/05/19 11:20:10;;;;;;;;;;;22.00;99.90;;;;;;5059773;28;19935;-70
2022/05/19 11:22:37;;;;;;;;;;;22.10;99.90;;;;;;5033985;28;19924;-69
2022/05/19 11:27:52;;;;;;;;;;;22.00;99.90;;;;;;5050578;28;20243;-69
2022/05/19 11:30:22;;;;;;;;;;;22.10;99.90;;;;;;5053951;28;19920;-72
2022/05/19 11:32:50;;;;;;;;;;;22.20;99.90;;;;;;5043100;28;19913;-71
2022/05/19 11:35:16;;;;;;;;;;;22.20;99.90;;;;;;5046700;28;19947;-70
2022/05/19 11:37:56;;;;;;;;;;;22.10;99.90;;;;;;5042683;28;19921;-72
2022/05/19 11:40:30;;;;;;;;;;;22.00;99.90;;;;;;5040363;28;19917;-70
2022/05/19 11:43:17;;;;;;;;;;;22.00;99.90;;;;;;5044253;28;19921;-69
2022/05/19 11:45:49;;;;;;;;;;;22.20;99.90;;;;;;5044433;28;19913;-71
2022/05/19 11:57:03;;;;;;;;;;;22.40;99.90;;;;;;5039328;28;19970;-70
2022/05/19 11:59:29;;;;;;;;;;;22.40;99.90;;;;;;5044505;28;19919;-72
2022/05/19 12:01:54;;;;;;;;;;;22.30;99.90;;;;;;5037755;28;19917;-72
2022/05/19 12:04:27;;;;;;;;;;;22.30;99.90;;;;;;5037161;28;19917;-73
2022/05/19 12:06:59;;;;;;;;;;;22.30;99.90;;;;;;5040484;28;19925;-70
2022/05/19 12:09:28;;;;;;;;;;;22.30;99.90;;;;;;5044009;28;20385;-72
2022/05/19 12:11:58;;;;;;;;;;;22.10;99.90;;;;;;5041603;28;19967;-70
2022/05/19 12:14:23;;;;;;;;;;;22.10;99.90;;;;;;5037684;28;20463;-71
2022/05/19 12:16:52;;;;;;;;;;;22.30;99.90;;;;;;5037637;28;20003;-70
2022/05/19 12:19:30;;;;;;;;;;;22.40;99.90;;;;;;5039714;28;19959;-71
2022/05/19 12:21:56;;;;;;;;;;;22.50;99.90;;;;;;5043131;28;20391;-70
2022/05/19 12:24:26;;;;;;;;;;;22.50;99.90;;;;;;5050606;28;19913;-71
2022/05/19 12:26:52;;;;;;;;;;;22.60;99.90;;;;;;5063147;28;20032;-70
2022/05/19 12:29:32;;;;;;;;;;;22.50;99.90;;;;;;5049569;28;20004;-70
2022/05/19 12:32:06;;;;;;;;;;;22.40;99.90;;;;;;5047724;28;19913;-71
2022/05/19 12:34:40;;;;;;;;;;;22.30;99.90;;;;;;5045201;28;20022;-72
2022/05/19 12:37:24;;;;;;;;;;;22.30;99.90;;;;;;5044577;28;19913;-71
2022/05/19 12:39:50;;;;;;;;;;;22.30;99.90;;;;;;5040894;28;20283;-70
2022/05/19 12:42:16;;;;;;;;;;;22.50;99.90;;;;;;5044974;28;19982;-70
2022/05/19 12:44:44;;;;;;;;;;;22.60;99.90;;;;;;5046102;28;20371;-70
2022/05/19 12:47:19;;;;;;;;;;;22.50;99.90;;;;;;5040292;28;19917;-71
2022/05/19 12:50:03;;;;;;;;;;;22.20;99.90;;;;;;5030501;28;19913;-71
2022/05/19 12:52:48;;;;;;;;;;;22.20;99.90;;;;;;5040988;28;19928;-71
2022/05/19 12:55:22;;;;;;;;;;;22.40;99.90;;;;;;5042044;28;20054;-71
2022/05/19 12:57:48;;;;;;;;;;;22.50;99.90;;;;;;5041091;28;19966;-71
2022/05/19 13:00:19;;;;;;;;;;;22.30;99.90;;;;;;5038591;28;19919;-70
2022/05/19 13:03:04;;;;;;;;;;;22.20;99.90;;;;;;5022687;28;19938;-70
2022/05/19 13:05:33;;;;;;;;;;;22.00;99.90;;;;;;5041790;28;20278;-69
2022/05/19 13:08:12;;;;;;;;;;;22.00;99.90;;;;;;5040710;28;19944;-70
2022/05/19 13:10:46;;;;;;;;;;;22.00;99.90;;;;;;5021941;28;19913;-68
2022/05/19 13:13:20;;;;;;;;;;;22.30;99.90;;;;;;5038776;28;19975;-72
2022/05/19 13:15:48;;;;;;;;;;;22.50;99.90;;;;;;5022294;28;20048;-69
2022/05/19 13:18:15;;;;;;;;;;;22.60;99.90;;;;;;5039985;28;20437;-71
2022/05/19 13:20:41;;;;;;;;;;;22.70;99.90;;;;;;5042717;28;19920;-69
2022/05/19 13:23:27;;;;;;;;;;;22.50;99.90;;;;;;5019731;28;19924;-70
2022/05/19 13:25:55;;;;;;;;;;;22.40;99.90;;;;;;5040936;28;20295;-70
2022/05/19 13:31:16;;;;;;;;;;;22.30;99.90;;;;;;5039861;28;19919;-67
2022/05/19 13:33:41;;;;;;;;;;;22.50;99.90;;;;;;5024337;28;19962;-68
2022/05/19 13:36:09;;;;;;;;;;;22.50;99.90;;;;;;5041962;28;19914;-69
2022/05/19 13:38:35;;;;;;;;;;;22.50;99.90;;;;;;5043306;28;19974;-68
2022/05/19 13:41:03;;;;;;;;;;;22.60;99.90;;;;;;5040962;28;19917;-69
2022/05/19 13:43:33;;;;;;;;;;;22.60;99.90;;;;;;5042555;28;19917;-68
2022/05/19 13:46:20;;;;;;;;;;;22.60;99.90;;;;;;5042301;28;20267;-67
2022/05/19 13:48:53;;;;;;;;;;;22.80;99.90;;;;;;5053028;28;19917;-68
2022/05/19 13:51:21;;;;;;;;;;;22.90;99.90;;;;;;5032432;28;19928;-70
2022/05/19 13:53:50;;;;;;;;;;;22.90;99.90;;;;;;5044764;28;19980;-71
2022/05/19 13:56:16;;;;;;;;;;;22.90;99.90;;;;;;5044256;28;20037;-71
2022/05/19 13:58:47;;;;;;;;;;;22.90;99.90;;;;;;5042779;28;19916;-69
2022/05/19 14:01:17;;;;;;;;;;;23.10;99.90;;;;;;5050392;28;19916;-71
2022/05/19 14:03:43;;;;;;;;;;;23.10;99.90;;;;;;5054723;28;19913;-69
2022/05/19 14:06:09;;;;;;;;;;;23.10;99.90;;;;;;5049052;28;19975;-70
2022/05/19 14:08:35;;;;;;;;;;;23.20;99.90;;;;;;5052868;28;19977;-70
2022/05/19 14:11:01;;;;;;;;;;;23.20;99.90;;;;;;5049543;28;19929;-70
2022/05/19 14:13:28;;;;;;;;;;;23.30;99.90;;;;;;5063401;28;19919;-69
2022/05/19 14:15:59;;;;;;;;;;;23.20;99.90;;;;;;5055021;28;19917;-69
2022/05/19 14:18:26;;;;;;;;;;;23.20;99.90;;;;;;5053941;28;20379;-68
2022/05/19 14:20:53;;;;;;;;;;;23.10;99.90;;;;;;5042523;28;19917;-69
2022/05/19 14:23:23;;;;;;;;;;;23.10;99.90;;;;;;5047653;28;19916;-67
2022/05/19 14:25:50;;;;;;;;;;;23.10;99.90;;;;;;5048057;28;19917;-69
2022/05/19 14:28:19;;;;;;;;;;;23.10;99.90;;;;;;5051711;28;19913;-69
2022/05/19 14:30:45;;;;;;;;;;;23.20;99.90;;;;;;5045956;28;19920;-69
2022/05/19 14:33:16;;;;;;;;;;;23.00;99.90;;;;;;5052376;28;19944;-69
2022/05/19 14:35:45;;;;;;;;;;;23.00;99.90;;;;;;5049123;28;19974;-69
2022/05/19 14:38:18;;;;;;;;;;;23.00;99.90;;;;;;5048313;28;19916;-68
2022/05/19 14:43:35;;;;;;;;;;;23.30;99.90;;;;;;5051097;28;19924;-69
2022/05/19 14:46:01;;;;;;;;;;;23.30;99.90;;;;;;5031656;28;19952;-68
2022/05/19 14:48:32;;;;;;;;;;;23.20;99.90;;;;;;5052125;28;19928;-69
2022/05/19 14:50:58;;;;;;;;;;;23.30;99.90;;;;;;5028583;28;19921;-70
2022/05/19 14:53:25;;;;;;;;;;;23.30;99.90;;;;;;5049643;28;19964;-70
2022/05/19 14:56:02;;;;;;;;;;;23.30;99.90;;;;;;5051598;28;20393;-69